createdAt,value
2022-07-29T00:01:44.501Z,2.00
2022-07-29T00:04:14.130Z,2.37
2022-07-29T00:06:42.961Z,2.30
2022-07-29T00:09:12.689Z,2.30
2022-07-29T00:11:41.264Z,2.27
2022-07-29T00:14:10.351Z,1.70
2022-07-29T00:16:39.030Z,1.97
2022-07-29T00:19:07.907Z,2.20
2022-07-29T00:21:36.356Z,2.10
2022-07-29T00:24:05.190Z,2.20
2022-07-29T00:26:35.002Z,2.00
2022-07-29T00:29:33.021Z,1.80
2022-07-29T00:31:54.292Z,1.87
2022-07-29T00:34:40.425Z,2.20
2022-07-29T00:37:08.843Z,2.37
2022-07-29T00:39:37.277Z,2.10
2022-07-29T00:42:08.893Z,2.10
2022-07-29T00:44:40.028Z,1.93
2022-07-29T00:47:08.974Z,1.90
2022-07-29T00:49:38.247Z,2.07
2022-07-29T00:52:09.048Z,2.40
2022-07-29T00:54:44.076Z,1.60
2022-07-29T00:57:15.038Z,2.10
2022-07-29T00:59:43.476Z,1.83
2022-07-29T01:02:12.170Z,2.20
2022-07-29T01:04:41.000Z,2.20
2022-07-29T01:07:10.065Z,2.03
2022-07-29T01:09:46.251Z,1.97
2022-07-29T01:12:20.508Z,2.23
2022-07-29T01:14:51.325Z,1.80
2022-07-29T01:17:26.655Z,2.57
2022-07-29T01:20:04.517Z,2.13
2022-07-29T01:22:55.193Z,1.80
2022-07-29T01:25:53.271Z,2.17
2022-07-29T01:28:56.813Z,2.50
2022-07-29T01:31:32.085Z,2.27
2022-07-29T01:34:06.634Z,2.10
2022-07-29T01:36:46.274Z,2.37
2022-07-29T01:39:27.113Z,2.83
2022-07-29T01:42:03.319Z,2.60
2022-07-29T01:44:42.142Z,2.70
2022-07-29T01:47:17.879Z,2.43
2022-07-29T01:49:52.716Z,2.27
2022-07-29T01:52:28.208Z,2.20
2022-07-29T01:55:01.091Z,2.43
2022-07-29T01:57:34.050Z,2.50
2022-07-29T02:00:07.413Z,2.17
2022-07-29T02:02:45.703Z,2.73
2022-07-29T02:05:18.440Z,2.00
2022-07-29T02:07:50.103Z,2.40
2022-07-29T02:10:21.988Z,2.60
2022-07-29T02:12:56.829Z,2.47
2022-07-29T02:15:29.000Z,2.27
2022-07-29T02:18:02.563Z,2.37
2022-07-29T02:20:32.949Z,2.30
2022-07-29T02:23:04.687Z,3.20
2022-07-29T02:25:38.080Z,2.33
2022-07-29T02:28:08.598Z,3.03
2022-07-29T02:30:42.554Z,2.40
2022-07-29T02:33:15.703Z,3.20
2022-07-29T02:35:48.266Z,2.60
2022-07-29T02:38:36.681Z,2.40
2022-07-29T02:41:12.456Z,2.50
2022-07-29T02:43:41.747Z,2.93
2022-07-29T02:46:29.060Z,3.00
2022-07-29T02:49:05.124Z,2.80
2022-07-29T02:51:45.079Z,2.50
2022-07-29T02:54:24.894Z,3.00
2022-07-29T02:56:56.603Z,2.80
2022-07-29T02:59:29.210Z,3.23
2022-07-29T03:02:01.647Z,2.77
2022-07-29T03:04:31.114Z,3.07
2022-07-29T03:07:02.304Z,2.77
2022-07-29T03:09:31.984Z,2.40
2022-07-29T03:12:02.792Z,2.80
2022-07-29T03:14:32.241Z,2.90
2022-07-29T03:17:02.732Z,2.43
2022-07-29T03:19:31.512Z,3.53
2022-07-29T03:22:00.889Z,3.47
2022-07-29T03:24:32.140Z,3.60
2022-07-29T03:27:01.170Z,3.60
2022-07-29T03:29:33.894Z,3.00
2022-07-29T03:32:07.191Z,3.00
2022-07-29T03:34:37.808Z,2.87
2022-07-29T03:37:08.050Z,3.13
2022-07-29T03:39:43.009Z,2.73
2022-07-29T03:42:15.092Z,3.00
2022-07-29T03:44:46.795Z,3.13
2022-07-29T03:47:19.777Z,2.77
2022-07-29T03:49:52.865Z,2.77
2022-07-29T03:52:22.221Z,2.23
2022-07-29T03:54:51.506Z,2.67
2022-07-29T03:57:22.779Z,3.17
2022-07-29T03:59:51.812Z,2.90
2022-07-29T04:02:24.461Z,2.83
2022-07-29T04:04:56.095Z,2.97
2022-07-29T04:07:24.538Z,2.90
2022-07-29T04:09:53.066Z,3.07
2022-07-29T04:12:22.048Z,2.70
2022-07-29T04:14:51.197Z,3.10
2022-07-29T04:17:21.064Z,3.10
2022-07-29T04:19:49.530Z,2.77
2022-07-29T04:22:17.955Z,2.50
2022-07-29T04:24:46.406Z,2.70
2022-07-29T04:27:15.079Z,2.53
2022-07-29T04:29:57.015Z,3.20
2022-07-29T04:32:28.286Z,2.70
2022-07-29T04:34:56.773Z,2.50
2022-07-29T04:37:25.122Z,2.60
2022-07-29T04:39:53.465Z,4.47
2022-07-29T04:42:27.804Z,2.73
2022-07-29T04:44:57.705Z,2.90
2022-07-29T04:47:31.257Z,2.10
2022-07-29T04:49:59.961Z,2.70
2022-07-29T04:52:28.524Z,2.47
2022-07-29T04:54:56.879Z,2.77
2022-07-29T04:57:25.367Z,2.77
2022-07-29T04:59:53.796Z,3.90
2022-07-29T05:02:22.911Z,3.00
2022-07-29T05:04:52.759Z,2.87
2022-07-29T05:07:21.267Z,3.83
2022-07-29T05:09:50.120Z,2.60
2022-07-29T05:12:18.691Z,3.20
2022-07-29T05:14:47.134Z,3.40
2022-07-29T05:17:15.676Z,2.77
2022-07-29T05:19:44.039Z,3.27
2022-07-29T05:22:13.913Z,3.30
2022-07-29T05:24:42.492Z,4.00
2022-07-29T05:27:11.509Z,4.47
2022-07-29T05:29:43.794Z,2.73
2022-07-29T05:32:13.829Z,2.27
2022-07-29T05:34:50.783Z,3.60
2022-07-29T05:37:21.933Z,2.67
2022-07-29T05:39:56.867Z,3.83
2022-07-29T05:42:26.786Z,3.20
2022-07-29T05:44:55.549Z,3.77
2022-07-29T05:47:24.484Z,4.57
2022-07-29T05:49:53.156Z,3.27
2022-07-29T05:52:23.741Z,3.67
2022-07-29T05:54:52.153Z,2.60
2022-07-29T05:57:21.978Z,3.37
2022-07-29T05:59:51.298Z,3.40
2022-07-29T06:02:20.525Z,3.53
2022-07-29T06:04:49.707Z,2.50
2022-07-29T06:07:18.355Z,3.03
2022-07-29T06:09:48.253Z,3.00
2022-07-29T06:12:16.755Z,2.60
2022-07-29T06:14:45.208Z,2.80
2022-07-29T06:17:13.719Z,2.47
2022-07-29T06:19:42.277Z,2.87
2022-07-29T06:22:10.763Z,2.93
2022-07-29T06:24:42.427Z,3.17
2022-07-29T06:27:12.394Z,2.70
2022-07-29T06:29:41.426Z,2.60
2022-07-29T06:32:10.194Z,2.50
2022-07-29T06:34:38.743Z,2.97
2022-07-29T06:37:15.346Z,2.93
2022-07-29T06:39:44.286Z,2.73
2022-07-29T06:42:14.083Z,2.30
2022-07-29T06:44:43.843Z,3.10
2022-07-29T06:47:12.312Z,2.43
2022-07-29T06:49:40.827Z,2.80
2022-07-29T06:52:09.253Z,2.97
2022-07-29T06:54:37.674Z,2.50
2022-07-29T06:57:06.369Z,2.93
2022-07-29T06:59:36.275Z,2.90
2022-07-29T07:02:05.020Z,3.10
2022-07-29T07:04:34.439Z,2.70
2022-07-29T07:07:02.909Z,2.63
2022-07-29T07:09:40.662Z,2.83
2022-07-29T07:12:10.003Z,2.80
2022-07-29T07:14:40.821Z,3.00
2022-07-29T07:17:09.417Z,2.30
2022-07-29T07:19:37.936Z,2.40
2022-07-29T07:22:06.360Z,4.70
2022-07-29T07:24:34.800Z,3.57
2022-07-29T07:27:03.268Z,2.60
2022-07-29T07:29:31.726Z,2.73
2022-07-29T07:32:01.680Z,2.63
2022-07-29T07:34:31.106Z,2.70
2022-07-29T07:36:59.584Z,3.20
2022-07-29T07:39:28.162Z,2.80
2022-07-29T07:41:56.703Z,2.73
2022-07-29T07:44:25.097Z,2.70
2022-07-29T07:46:53.605Z,2.77
2022-07-29T07:49:24.734Z,2.63
2022-07-29T07:51:53.609Z,2.80
2022-07-29T07:54:22.101Z,2.70
2022-07-29T07:56:53.338Z,2.63
2022-07-29T07:59:22.061Z,3.27
2022-07-29T08:01:55.568Z,2.87
2022-07-29T08:04:28.482Z,3.30
2022-07-29T08:06:58.664Z,2.70
2022-07-29T08:09:30.373Z,2.90
2022-07-29T08:12:00.209Z,2.30
2022-07-29T08:14:28.666Z,2.30
2022-07-29T08:16:57.070Z,2.90
2022-07-29T08:19:26.952Z,2.97
2022-07-29T08:21:55.934Z,2.93
2022-07-29T08:24:47.586Z,2.93
2022-07-29T08:27:42.002Z,2.93
2022-07-29T08:30:05.881Z,3.30
2022-07-29T08:32:52.427Z,2.67
2022-07-29T08:35:23.791Z,3.00
2022-07-29T08:37:52.395Z,3.50
2022-07-29T08:40:31.894Z,2.80
2022-07-29T08:43:01.845Z,3.07
2022-07-29T08:45:31.780Z,2.83
2022-07-29T08:48:00.935Z,3.43
2022-07-29T08:50:30.989Z,2.93
2022-07-29T08:53:00.441Z,3.50
2022-07-29T08:55:29.940Z,3.23
2022-07-29T08:57:59.007Z,3.27
2022-07-29T09:00:28.397Z,3.03
2022-07-29T09:03:00.801Z,3.33
2022-07-29T09:05:31.160Z,2.50
2022-07-29T09:07:59.863Z,4.00
2022-07-29T09:10:28.585Z,3.70
2022-07-29T09:12:57.288Z,3.53
2022-07-29T09:15:26.494Z,3.70
2022-07-29T09:17:56.350Z,2.80
2022-07-29T09:20:25.333Z,3.00
2022-07-29T09:22:55.339Z,3.53
2022-07-29T09:25:42.937Z,3.10
2022-07-29T09:28:13.648Z,3.20
2022-07-29T09:30:54.054Z,3.30
2022-07-29T09:33:24.401Z,2.73
2022-07-29T09:36:02.456Z,3.90
2022-07-29T09:38:34.370Z,3.90
2022-07-29T09:41:05.787Z,3.93
2022-07-29T09:43:35.827Z,3.30
2022-07-29T09:46:13.491Z,3.47
2022-07-29T09:48:42.400Z,3.30
2022-07-29T09:51:24.117Z,3.70
2022-07-29T09:53:56.836Z,3.30
2022-07-29T09:56:41.488Z,3.22
2022-07-29T09:59:12.235Z,3.45
2022-07-29T10:01:40.705Z,3.13
2022-07-29T10:04:09.270Z,3.50
2022-07-29T10:06:37.729Z,3.63
2022-07-29T10:09:13.994Z,3.10
2022-07-29T10:11:49.671Z,2.95
2022-07-29T10:14:18.557Z,3.80
2022-07-29T10:16:47.063Z,3.20
2022-07-29T10:19:16.469Z,3.00
2022-07-29T10:21:45.863Z,3.97
2022-07-29T10:24:15.880Z,4.10
2022-07-29T10:26:45.707Z,3.33
2022-07-29T10:29:14.377Z,3.60
2022-07-29T10:31:53.065Z,3.40
2022-07-29T10:34:32.528Z,3.23
2022-07-29T10:37:15.290Z,3.63
2022-07-29T10:39:58.574Z,3.60
2022-07-29T10:42:34.507Z,3.73
2022-07-29T10:45:05.094Z,4.27
2022-07-29T10:47:35.338Z,3.47
2022-07-29T10:50:07.372Z,3.43
2022-07-29T10:52:57.958Z,3.40
2022-07-29T10:55:44.560Z,3.00
2022-07-29T10:58:19.381Z,3.13
2022-07-29T11:00:49.692Z,3.20
2022-07-29T11:03:49.442Z,2.80
2022-07-29T11:06:26.338Z,3.43
2022-07-29T11:09:34.832Z,3.70
2022-07-29T11:12:49.486Z,3.13
2022-07-29T11:15:21.828Z,3.63
2022-07-29T11:18:08.084Z,3.27
2022-07-29T11:20:46.731Z,3.30
2022-07-29T11:23:33.774Z,3.80
2022-07-29T11:26:21.202Z,3.40
2022-07-29T11:29:03.742Z,3.00
2022-07-29T11:31:42.508Z,3.40
2022-07-29T11:34:27.793Z,4.40
2022-07-29T11:37:28.001Z,3.50
2022-07-29T11:40:18.414Z,3.40
2022-07-29T11:42:48.742Z,3.67
2022-07-29T11:45:47.730Z,3.60
2022-07-29T11:51:13.316Z,3.80
2022-07-29T11:53:42.350Z,3.80
2022-07-29T11:56:11.381Z,4.33
2022-07-29T11:58:45.437Z,3.53
2022-07-29T12:01:19.771Z,3.70
2022-07-29T12:03:48.267Z,4.27
2022-07-29T12:06:18.321Z,3.63
2022-07-29T12:07:02.107Z,4.63
2022-07-29T12:08:47.660Z,4.63
2022-07-29T12:11:21.748Z,4.00
2022-07-29T12:13:51.701Z,3.83
2022-07-29T12:16:25.390Z,4.00
2022-07-29T12:18:59.818Z,4.10
2022-07-29T12:21:29.340Z,4.10
2022-07-29T12:24:05.791Z,3.83
2022-07-29T12:26:40.381Z,3.90
2022-07-29T12:29:15.689Z,4.60
2022-07-29T12:31:55.078Z,4.30
2022-07-29T12:34:29.225Z,3.70
2022-07-29T12:36:57.934Z,4.20
2022-07-29T12:39:28.766Z,4.30
2022-07-29T12:42:04.618Z,4.20
2022-07-29T12:44:50.008Z,4.03
2022-07-29T12:47:21.575Z,3.80
2022-07-29T12:49:51.404Z,3.60
2022-07-29T12:52:34.462Z,4.00
2022-07-29T12:55:03.501Z,4.70
2022-07-29T12:57:32.946Z,4.30
2022-07-29T13:00:07.574Z,4.53
2022-07-29T13:02:37.770Z,4.40
2022-07-29T13:05:09.271Z,4.00
2022-07-29T13:07:55.254Z,4.30
2022-07-29T13:10:26.023Z,4.30
2022-07-29T13:13:10.388Z,3.80
2022-07-29T13:15:40.517Z,3.90
2022-07-29T13:18:29.839Z,3.73
2022-07-29T13:20:58.715Z,3.73
2022-07-29T13:23:27.114Z,3.93
2022-07-29T13:25:55.493Z,4.03
2022-07-29T13:28:23.976Z,3.60
2022-07-29T13:30:52.470Z,4.20
2022-07-29T13:33:22.293Z,3.90
2022-07-29T13:35:50.710Z,3.70
2022-07-29T13:38:19.289Z,3.90
2022-07-29T13:40:47.801Z,4.10
2022-07-29T13:43:16.444Z,3.67
2022-07-29T13:45:44.930Z,6.03
2022-07-29T13:48:13.305Z,4.60
2022-07-29T13:50:43.103Z,14.60
2022-07-29T13:53:11.539Z,4.30
2022-07-29T13:55:46.549Z,4.30
2022-07-29T13:58:15.712Z,6.70
2022-07-29T14:00:44.161Z,4.50
2022-07-29T14:03:12.552Z,9.53
2022-07-29T14:05:42.399Z,9.67
2022-07-29T14:08:10.844Z,4.27
2022-07-29T14:10:39.321Z,10.27
2022-07-29T14:13:24.606Z,4.97
2022-07-29T14:15:53.956Z,6.97
2022-07-29T14:18:22.437Z,7.30
2022-07-29T14:20:52.669Z,7.50
2022-07-29T14:23:21.099Z,4.83
2022-07-29T14:25:49.674Z,6.80
2022-07-29T14:28:18.216Z,5.83
2022-07-29T14:30:46.715Z,5.30
2022-07-29T14:33:15.179Z,5.00
2022-07-29T14:35:43.625Z,5.00
2022-07-29T14:38:13.497Z,4.80
2022-07-29T14:40:42.039Z,4.40
2022-07-29T14:43:10.481Z,3.83
2022-07-29T14:45:39.013Z,3.83
2022-07-29T14:48:07.858Z,4.40
2022-07-29T14:50:36.365Z,3.93
2022-07-29T14:53:04.988Z,4.80
2022-07-29T14:55:34.763Z,5.47
2022-07-29T14:58:09.837Z,4.80
2022-07-29T15:00:40.595Z,4.83
2022-07-29T15:03:11.121Z,4.50
2022-07-29T15:05:39.854Z,5.43
2022-07-29T15:08:09.142Z,3.93
2022-07-29T15:10:38.985Z,4.00
2022-07-29T15:13:07.464Z,4.40
2022-07-29T15:15:35.869Z,5.00
2022-07-29T15:18:04.646Z,5.80
2022-07-29T15:20:33.185Z,4.27
2022-07-29T15:23:01.663Z,4.20
2022-07-29T15:25:30.076Z,4.17
2022-07-29T15:28:03.219Z,3.67
2022-07-29T15:30:34.410Z,3.67
2022-07-29T15:33:04.160Z,3.57
2022-07-29T15:35:32.900Z,3.33
2022-07-29T15:38:01.449Z,3.70
2022-07-29T15:40:30.109Z,3.60
2022-07-29T15:43:06.453Z,3.20
2022-07-29T15:45:40.488Z,3.50
2022-07-29T15:48:14.713Z,4.53
2022-07-29T15:50:46.946Z,4.20
2022-07-29T15:53:15.956Z,3.20
2022-07-29T15:55:44.363Z,3.40
2022-07-29T15:58:14.552Z,3.10
2022-07-29T16:00:43.069Z,4.03
2022-07-29T16:03:11.638Z,2.90
2022-07-29T16:05:40.160Z,3.07
2022-07-29T16:08:08.590Z,3.10
2022-07-29T16:10:37.069Z,3.30
2022-07-29T16:13:05.789Z,3.00
2022-07-29T16:15:35.619Z,3.63
2022-07-29T16:18:04.152Z,4.77
2022-07-29T16:20:32.553Z,5.10
2022-07-29T16:23:01.697Z,5.00
2022-07-29T16:25:57.627Z,5.53
2022-07-29T16:28:18.631Z,5.70
2022-07-29T16:30:48.421Z,5.20
2022-07-29T16:33:16.856Z,5.70
2022-07-29T16:35:45.368Z,5.47
2022-07-29T16:38:13.770Z,6.03
2022-07-29T16:40:42.231Z,5.30
2022-07-29T16:43:10.886Z,5.50
2022-07-29T16:45:41.859Z,5.70
2022-07-29T16:48:18.046Z,4.90
2022-07-29T16:50:47.187Z,4.47
2022-07-29T16:53:15.858Z,4.33
2022-07-29T16:55:44.386Z,5.33
2022-07-29T16:58:13.024Z,5.50
2022-07-29T17:00:41.693Z,5.20
2022-07-29T17:03:10.221Z,5.00
2022-07-29T17:05:52.680Z,4.37
2022-07-29T17:08:22.895Z,5.60
2022-07-29T17:10:51.666Z,5.10
2022-07-29T17:13:20.345Z,6.60
2022-07-29T17:15:48.864Z,7.23
2022-07-29T17:18:17.395Z,6.80
2022-07-29T17:20:47.248Z,6.47
2022-07-29T17:23:15.738Z,5.33
2022-07-29T17:25:44.133Z,5.00
2022-07-29T17:28:12.489Z,4.70
2022-07-29T17:30:40.921Z,5.37
2022-07-29T17:33:09.385Z,6.17
2022-07-29T17:35:55.205Z,6.40
2022-07-29T17:38:25.138Z,4.60
2022-07-29T17:40:53.554Z,5.17
2022-07-29T17:43:22.062Z,5.20
2022-07-29T17:45:50.963Z,5.13
2022-07-29T17:48:19.813Z,5.27
2022-07-29T17:50:49.611Z,5.43
2022-07-29T17:53:18.521Z,4.67
2022-07-29T17:55:48.834Z,4.83
2022-07-29T17:58:17.921Z,4.47
2022-07-29T18:00:46.367Z,5.43
2022-07-29T18:03:14.975Z,4.83
2022-07-29T18:05:43.742Z,4.10
2022-07-29T18:08:12.957Z,5.00
2022-07-29T18:10:42.414Z,7.10
2022-07-29T18:13:13.266Z,4.63
2022-07-29T18:15:42.268Z,4.50
2022-07-29T18:18:10.781Z,4.60
2022-07-29T18:20:39.553Z,5.00
2022-07-29T18:23:08.321Z,5.50
2022-07-29T18:25:36.995Z,5.77
2022-07-29T18:28:06.486Z,6.37
2022-07-29T18:30:37.860Z,6.30
2022-07-29T18:33:24.286Z,5.47
2022-07-29T18:36:10.090Z,6.07
2022-07-29T18:38:41.161Z,5.83
2022-07-29T18:41:09.538Z,5.30
2022-07-29T18:43:38.092Z,5.47
2022-07-29T18:46:07.969Z,4.67
2022-07-29T18:48:36.728Z,5.07
2022-07-29T18:51:09.323Z,5.27
2022-07-29T18:53:38.542Z,6.03
2022-07-29T18:56:07.107Z,6.00
2022-07-29T18:58:37.120Z,5.97
2022-07-29T19:01:07.275Z,5.90
2022-07-29T19:03:36.571Z,5.70
2022-07-29T19:06:05.450Z,5.13
2022-07-29T19:08:36.050Z,5.80
2022-07-29T19:11:04.581Z,5.50
2022-07-29T19:13:33.211Z,5.80
2022-07-29T19:16:01.890Z,6.63
2022-07-29T19:18:31.778Z,5.97
2022-07-29T19:21:00.263Z,6.53
2022-07-29T19:23:28.649Z,5.93
2022-07-29T19:25:57.237Z,6.67
2022-07-29T19:28:26.522Z,5.90
2022-07-29T19:30:55.101Z,5.30
2022-07-29T19:33:23.644Z,5.47
2022-07-29T19:35:55.059Z,6.40
2022-07-29T19:38:23.737Z,5.47
2022-07-29T19:40:52.373Z,6.60
2022-07-29T19:43:50.480Z,6.53
2022-07-29T19:46:09.668Z,6.83
2022-07-29T19:48:38.243Z,5.40
2022-07-29T19:51:08.125Z,5.40
2022-07-29T19:53:36.761Z,5.70
2022-07-29T19:56:06.362Z,6.40
2022-07-29T19:58:37.549Z,6.07
2022-07-29T20:01:10.490Z,6.03
2022-07-29T20:03:40.734Z,6.80
2022-07-29T20:06:10.589Z,5.60
2022-07-29T20:08:39.164Z,6.07
2022-07-29T20:11:08.066Z,6.03
2022-07-29T20:13:36.772Z,5.73
2022-07-29T20:16:08.294Z,5.80
2022-07-29T20:18:37.289Z,5.77
2022-07-29T20:21:05.883Z,5.67
2022-07-29T20:23:35.705Z,5.70
2022-07-29T20:26:08.712Z,6.00
2022-07-29T20:28:40.198Z,5.70
2022-07-29T20:31:09.114Z,5.77
2022-07-29T20:33:37.751Z,6.47
2022-07-29T20:36:07.343Z,5.63
2022-07-29T20:38:37.204Z,5.90
2022-07-29T20:41:06.016Z,5.93
2022-07-29T20:43:36.116Z,5.40
2022-07-29T20:46:07.782Z,5.83
2022-07-29T20:48:36.418Z,4.83
2022-07-29T20:51:04.945Z,6.17
2022-07-29T20:53:33.859Z,6.63
2022-07-29T20:56:04.160Z,5.70
2022-07-29T20:58:34.063Z,6.10
2022-07-29T21:01:02.866Z,5.50
2022-07-29T21:03:31.559Z,5.70
2022-07-29T21:06:00.969Z,6.60
2022-07-29T21:08:29.824Z,6.40
2022-07-29T21:10:58.582Z,7.00
2022-07-29T21:13:28.656Z,5.73
2022-07-29T21:16:02.602Z,6.07
2022-07-29T21:18:37.305Z,6.53
2022-07-29T21:21:06.814Z,5.30
2022-07-29T21:23:36.073Z,6.50
2022-07-29T21:26:09.821Z,6.00
2022-07-29T21:28:41.665Z,6.37
2022-07-29T21:31:13.535Z,6.30
2022-07-29T21:33:44.363Z,6.07
2022-07-29T21:36:46.574Z,6.30
2022-07-29T21:39:07.066Z,6.87
2022-07-29T21:41:36.435Z,6.43
2022-07-29T21:44:06.319Z,6.30
2022-07-29T21:46:36.531Z,6.20
2022-07-29T21:49:05.118Z,5.97
2022-07-29T21:51:33.680Z,6.47
2022-07-29T21:54:02.148Z,5.77
2022-07-29T21:56:31.593Z,6.63
2022-07-29T21:59:00.837Z,6.97
2022-07-29T22:01:39.432Z,6.70
2022-07-29T22:04:08.089Z,7.50
2022-07-29T22:06:36.575Z,6.70
2022-07-29T22:09:05.449Z,7.20
2022-07-29T22:11:33.990Z,6.20
2022-07-29T22:14:02.390Z,6.43
2022-07-29T22:16:32.328Z,6.70
2022-07-29T22:19:00.853Z,7.90
2022-07-29T22:21:29.389Z,7.17
2022-07-29T22:23:57.807Z,7.20
2022-07-29T22:26:26.350Z,7.50
2022-07-29T22:28:54.817Z,7.63
2022-07-29T22:31:23.500Z,6.80
2022-07-29T22:33:53.910Z,6.60
2022-07-29T22:36:22.420Z,7.00
2022-07-29T22:38:52.117Z,6.70
2022-07-29T22:41:20.857Z,6.30
2022-07-29T22:43:49.293Z,6.17
2022-07-29T22:46:18.059Z,6.10
2022-07-29T22:48:46.717Z,6.10
2022-07-29T22:51:16.575Z,6.57
2022-07-29T22:53:45.128Z,6.57
2022-07-29T22:56:14.042Z,6.50
2022-07-29T22:58:42.488Z,6.20
2022-07-29T23:01:11.141Z,6.67
2022-07-29T23:03:42.098Z,6.47
2022-07-29T23:06:21.354Z,6.37
2022-07-29T23:08:49.748Z,6.37
2022-07-29T23:11:18.399Z,7.10
2022-07-29T23:13:47.047Z,5.73
2022-07-29T23:16:15.569Z,5.80
2022-07-29T23:18:55.761Z,6.27
2022-07-29T23:21:26.309Z,6.87
2022-07-29T23:23:54.804Z,6.50
2022-07-29T23:26:23.443Z,5.80
2022-07-29T23:28:51.968Z,5.20
2022-07-29T23:31:20.746Z,5.30
2022-07-29T23:33:49.206Z,5.67
2022-07-29T23:36:19.684Z,5.80
2022-07-29T23:38:49.703Z,5.33
2022-07-29T23:41:18.280Z,5.97
2022-07-29T23:43:46.690Z,5.93
2022-07-29T23:46:15.421Z,5.83
2022-07-29T23:48:43.888Z,5.50
2022-07-29T23:51:12.483Z,5.83
2022-07-29T23:53:53.654Z,5.43
2022-07-29T23:56:24.207Z,6.50
2022-07-29T23:58:52.680Z,6.20
